Bulk Hong Kong — 3EEW4 — position and weather

sailwx.info

Track history (hours):
 
Tides and Currents Weather Stations Pressure Air Temp Water Temp Dewpoint Dewpoint Depression Visibility Wind Speed Wind Dir Waves Ship Positions

Bulk Hong Kong

Last reported at 2015-Aug-28 09:29 UTC. Time now 2015-Aug-28 09:36 UTC.
Position N 01°16' E 103°57'.

Length 289 m; draft 17.5 m.

Type: Cargo ship. MMSI: 371828000.

Date/timePositionNaut miles runAvg speedWind from/ knotsBaromVisibWave heightAir tempDewpointWater temp
2015-Aug-28 09:29N 01°16' E 103°57'0 0.0
2015-Aug-28 08:32N 01°16' E 103°57'0 0.0
2015-Aug-28 07:32N 01°16' E 103°57'0 0.1
2015-Aug-28 06:17N 01°16' E 103°57'0 0.1
2015-Aug-28 05:29N 01°16' E 103°57'0 0.0
2015-Aug-28 04:29N 01°16' E 103°57'0 0.1
2015-Aug-28 03:29N 01°16' E 103°57'0 0.1
2015-Aug-28 02:29N 01°16' E 103°57'0 0.0
2015-Aug-28 01:23N 01°16' E 103°57'0 0.1
2015-Aug-28 00:29N 01°16' E 103°57'0 0.2
2015-Aug-27 23:08N 01°16' E 103°57'0 0.4
2015-Aug-27 22:33N 01°16' E 103°57'2 2.4
2015-Aug-27 21:33N 01°14' E 103°57'3 3.2
2015-Aug-27 20:33N 01°13' E 103°54'5 5.2
2015-Aug-27 19:33N 01°10' E 103°49'6 5.9
2015-Aug-27 18:29N 01°06' E 103°44'116 8.9
2015-Aug-27 05:27N 02°00' E 102°01'16 8.1
2015-Aug-27 03:32N 02°08' E 101°48'8 8.1
2015-Aug-27 02:33N 02°12' E 101°41'16 7.8
2015-Aug-27 00:33N 02°26' E 101°35'18 9.2
2015-Aug-26 22:33N 02°37' E 101°20'10 9.6
2015-Aug-26 21:33N 02°42' E 101°11'10 9.6
2015-Aug-26 20:33N 02°46' E 101°03'28 9.5
2015-Aug-26 17:33N 03°01' E 100°38'19 9.7
2015-Aug-26 15:33N 03°14' E 100°24'  
Track history (hours):
 
Tides and Currents Weather Stations Pressure Air Temp Water Temp Dewpoint Dewpoint Depression Visibility Wind Speed Wind Dir Waves Ship Positions

Bulk Hong Kong

Last reported at 2015-Aug-28 09:29 UTC. Time now 2015-Aug-28 09:36 UTC.
Position N 01°16' E 103°57'.

Length 289 m; draft 17.5 m.

Type: Cargo ship. MMSI: 371828000.

Date/timePositionNaut miles runAvg speedWind from/ knotsBaromVisibWave heightAir tempDewpointWater temp
2015-Aug-28 09:29N 01°16' E 103°57'0 0.0
2015-Aug-28 08:32N 01°16' E 103°57'0 0.0
2015-Aug-28 07:32N 01°16' E 103°57'0 0.1
2015-Aug-28 06:17N 01°16' E 103°57'0 0.1
2015-Aug-28 05:29N 01°16' E 103°57'0 0.0
2015-Aug-28 04:29N 01°16' E 103°57'0 0.1
2015-Aug-28 03:29N 01°16' E 103°57'0 0.1
2015-Aug-28 02:29N 01°16' E 103°57'0 0.0
2015-Aug-28 01:23N 01°16' E 103°57'0 0.1
2015-Aug-28 00:29N 01°16' E 103°57'0 0.2
2015-Aug-27 23:08N 01°16' E 103°57'0 0.4
2015-Aug-27 22:33N 01°16' E 103°57'2 2.4
2015-Aug-27 21:33N 01°14' E 103°57'3 3.2
2015-Aug-27 20:33N 01°13' E 103°54'5 5.2
2015-Aug-27 19:33N 01°10' E 103°49'6 5.9
2015-Aug-27 18:29N 01°06' E 103°44'116 8.9
2015-Aug-27 05:27N 02°00' E 102°01'16 8.1
2015-Aug-27 03:32N 02°08' E 101°48'8 8.1
2015-Aug-27 02:33N 02°12' E 101°41'16 7.8
2015-Aug-27 00:33N 02°26' E 101°35'18 9.2
2015-Aug-26 22:33N 02°37' E 101°20'10 9.6
2015-Aug-26 21:33N 02°42' E 101°11'10 9.6
2015-Aug-26 20:33N 02°46' E 101°03'28 9.5
2015-Aug-26 17:33N 03°01' E 100°38'19 9.7
2015-Aug-26 15:33N 03°14' E 100°24'  

Dump ship's entire track history